Startpagina
METAR-TAF:

METAR-TAF

Vliegvelden :

Laupheim, Duitsland

breedte: 48-13N, lengte: 009-55E, hoogte: 538 m

Actueel weer

Dit bericht is 50 minuten geleden gemaakt, om 02:20 UTC
Wind 6 kt uit het zuidwesten
Temperatuur 14°C
Vochtigheid 94%
Druk 1018 hPa
Zicht 10 km of meer
Weinig wolken op 300 ft
Verspreide wolken op 5000 ft

METAR: ETHL 240220Z 23006KT 9999 FEW003 SCT050 14/13 Q1018 BLU+

Tijdstip: 05:10 (03:10 UTC)

Verwachting

Dit bericht is 13 uur en het 50 minuten geleden gemaakt, om 13:20 UTC
Verwachting geldig van 23 om 14 UTC tot 23 om 23 UTC
Wind 7 kt uit het oostnoordoosten
Zicht 10 km of meer
Verspreide wolken op 3000 ft
Tijdelijke
van 23 om 16 UTC tot 23 om 23 UTC
Wind 20 kt uit het noorden met uitschieters tot 35 kt
Zicht: 2000 m
Verspreide wolken op 1000 ft
Gebroken wolken op 3000 ft, Cumulonimbus.
onweer, zware regen, hagel

TAF: ETHL 231320Z 2314/2323 06007KT 9999 NSW SCT030 TEMPO 2316/2323 35020G35KT 2000 +TSRAGR SCT010 BKN030CB

Waarnemingen en weersverwachtingen van meer dan 4000 vliegvelden (METAR en TAF).

De beschikbare stations zijn de gele en rode punten op de kaart.

Ga met uw muis naar het station om de naam te zien.

Klik dan om waarnemingen en weersverwachtingen te zien.

kaart wijzigen: klik op de groene knoppen met een zwart kruis om in te zoomen, op de groene knop met een streepje om uit te zoomen of op de groene pijlen voor aangrenzende kaarten.


METAR-TAF: